Time;durP1;ratioP1;P1;durP2;ratioP2;P2;SDS_P1;SDS_P2;PMS_P1;PMS_P2;Temp;Humidity;BMP_temperature;BMP_pressure;BME280_temperature;BME280_humidity;BME280_pressure;Samples;Min_cycle;Max_cycle;Signal;HPM_P1;HPM_P2
2021/05/20 04:57:49;;;;;;;2.70;2.30;;;7.20;99.90;;;;;;6135740;23;20054;-88
2021/05/20 05:00:19;;;;;;;3.28;2.30;;;7.30;99.90;;;;;;6187002;23;20079;-89
2021/05/20 05:02:49;;;;;;;2.17;1.90;;;7.30;99.90;;;;;;6162467;23;20021;-88
2021/05/20 05:05:18;;;;;;;4.43;2.00;;;7.30;99.90;;;;;;6159579;23;20028;-86
2021/05/20 05:07:50;;;;;;;2.22;2.03;;;7.40;99.90;;;;;;6160596;23;20120;-86
2021/05/20 05:10:18;;;;;;;2.20;2.00;;;7.40;99.90;;;;;;6159949;23;20052;-87
2021/05/20 05:12:46;;;;;;;2.25;2.08;;;7.40;99.90;;;;;;6159238;23;20063;-86
2021/05/20 05:15:13;;;;;;;2.47;2.13;;;7.40;99.90;;;;;;6197887;23;20044;-87
2021/05/20 05:17:42;;;;;;;4.03;2.00;;;7.50;99.90;;;;;;6199454;23;20024;-86
2021/05/20 05:20:09;;;;;;;2.33;1.95;;;7.50;99.90;;;;;;6201901;23;20044;-89
2021/05/20 05:22:39;;;;;;;2.25;1.95;;;7.60;99.90;;;;;;6176230;23;20025;-89
2021/05/20 05:25:13;;;;;;;6.35;1.88;;;7.70;99.90;;;;;;6172569;23;20032;-89
2021/05/20 05:27:43;;;;;;;1.70;1.60;;;7.80;99.90;;;;;;6190978;23;20036;-87
2021/05/20 05:30:18;;;;;;;6.22;2.20;;;7.90;99.90;;;;;;6186854;23;20017;-87
2021/05/20 05:32:45;;;;;;;1.83;1.50;;;8.10;99.90;;;;;;6185218;23;20052;-87
2021/05/20 05:35:16;;;;;;;2.45;2.25;;;8.10;99.90;;;;;;6185282;23;20087;-86
2021/05/20 05:37:48;;;;;;;1.60;1.50;;;8.20;99.90;;;;;;6187921;23;20021;-86
2021/05/20 05:40:17;;;;;;;2.35;1.83;;;8.20;99.90;;;;;;6188179;23;20455;-90
2021/05/20 05:42:44;;;;;;;4.63;2.38;;;8.20;99.90;;;;;;6157830;23;20037;-85
2021/05/20 05:45:14;;;;;;;3.25;1.70;;;8.20;99.90;;;;;;6184516;23;20108;-89
2021/05/20 05:47:43;;;;;;;3.10;1.83;;;8.20;99.90;;;;;;6156532;23;20088;-87
2021/05/20 05:50:14;;;;;;;1.88;1.67;;;8.20;99.90;;;;;;6182947;23;20071;-83
2021/05/20 05:52:42;;;;;;;1.67;1.58;;;8.20;99.90;;;;;;6156541;23;20107;-83
2021/05/20 05:55:09;;;;;;;2.00;1.80;;;8.30;99.90;;;;;;6182120;23;20395;-84
2021/05/20 05:57:36;;;;;;;2.63;1.50;;;8.60;99.90;;;;;;6182997;23;20071;-88
2021/05/20 06:00:09;;;;;;;1.52;1.40;;;9.00;99.90;;;;;;6157970;23;20032;-88
2021/05/20 06:02:36;;;;;;;1.50;1.30;;;9.40;99.90;;;;;;6184242;23;20053;-88
2021/05/20 06:05:07;;;;;;;1.80;1.20;;;9.60;99.90;;;;;;6183217;23;20419;-88
2021/05/20 06:07:41;;;;;;;1.73;1.25;;;9.80;99.90;;;;;;6184828;23;20053;-86
2021/05/20 06:10:09;;;;;;;1.10;1.10;;;10.00;99.90;;;;;;6157924;23;20017;-86
2021/05/20 06:12:36;;;;;;;1.90;1.40;;;9.80;99.90;;;;;;6156257;23;20021;-86
2021/05/20 06:15:05;;;;;;;5.07;1.50;;;9.70;99.90;;;;;;6157871;23;20060;-86
2021/05/20 06:17:32;;;;;;;2.50;1.58;;;9.60;99.90;;;;;;6182861;23;20044;-85
2021/05/20 06:20:00;;;;;;;1.30;1.13;;;9.60;99.90;;;;;;6182089;23;20040;-84
2021/05/20 06:22:27;;;;;;;5.65;1.23;;;9.60;99.90;;;;;;6182444;23;20099;-87
2021/05/20 06:24:53;;;;;;;3.25;1.40;;;9.70;99.90;;;;;;6156672;23;20052;-88
2021/05/20 06:27:20;;;;;;;1.92;1.25;;;9.70;99.90;;;;;;6182719;23;20067;-84
2021/05/20 06:29:50;;;;;;;1.95;1.25;;;9.80;99.90;;;;;;6156162;23;20152;-88
2021/05/20 06:32:22;;;;;;;2.42;1.23;;;9.80;99.90;;;;;;6184009;23;20087;-88
2021/05/20 06:34:50;;;;;;;5.07;1.50;;;9.90;99.90;;;;;;6183433;23;20016;-86
2021/05/20 06:37:20;;;;;;;3.15;1.20;;;9.90;99.90;;;;;;6159697;23;20021;-87
2021/05/20 06:39:47;;;;;;;3.38;1.17;;;9.90;99.90;;;;;;6157947;23;20025;-86
2021/05/20 06:42:18;;;;;;;3.65;1.13;;;10.20;99.90;;;;;;6186274;23;20101;-88
2021/05/20 06:44:45;;;;;;;2.38;1.08;;;10.40;99.90;;;;;;6184371;23;20032;-88
2021/05/20 06:47:16;;;;;;;1.42;1.02;;;10.90;99.90;;;;;;6184230;23;20091;-91
2021/05/20 06:49:42;;;;;;;0.80;0.80;;;11.40;99.90;;;;;;6183250;23;20021;-85
2021/05/20 06:52:11;;;;;;;2.40;0.90;;;11.60;99.90;;;;;;6182840;23;20463;-85
2021/05/20 06:54:41;;;;;;;0.98;0.98;;;11.40;99.90;;;;;;6183441;23;20323;-91
2021/05/20 06:57:21;;;;;;;0.98;0.90;;;11.30;99.90;;;;;;6157596;23;20412;-87
2021/05/20 07:00:02;;;;;;;1.08;1.08;;;11.10;99.90;;;;;;6160105;23;20076;-86
2021/05/20 07:02:30;;;;;;;3.05;1.10;;;11.10;99.90;;;;;;6195887;23;20088;-87
2021/05/20 07:04:59;;;;;;;1.05;1.00;;;11.00;99.90;;;;;;6175512;23;20385;-87
2021/05/20 07:07:26;;;;;;;1.48;1.10;;;11.00;99.90;;;;;;6197313;23;20036;-87
2021/05/20 07:09:54;;;;;;;3.65;0.93;;;11.40;99.90;;;;;;6161812;23;20016;-87
2021/05/20 07:12:23;;;;;;;1.45;0.70;;;12.40;99.90;;;;;;6133267;23;20021;-84
2021/05/20 07:14:51;;;;;;;2.30;0.90;;;12.90;99.90;;;;;;6184019;23;20103;-82
2021/05/20 07:17:18;;;;;;;0.85;0.80;;;13.40;99.90;;;;;;6183311;23;20148;-85
2021/05/20 07:19:46;;;;;;;1.02;0.80;;;13.80;99.90;;;;;;6158192;23;20021;-86
2021/05/20 07:22:13;;;;;;;1.65;0.82;;;14.00;99.90;;;;;;6186822;23;20025;-90
2021/05/20 07:24:40;;;;;;;1.00;0.90;;;14.20;99.90;;;;;;6161802;23;20091;-89
2021/05/20 07:27:08;;;;;;;0.65;0.65;;;13.70;99.90;;;;;;6160411;23;20095;-84
2021/05/20 07:29:37;;;;;;;1.85;0.70;;;12.80;99.90;;;;;;6183802;23;20025;-87
2021/05/20 07:32:07;;;;;;;0.88;0.75;;;12.30;99.90;;;;;;6184147;23;20321;-88
2021/05/20 07:34:35;;;;;;;1.10;1.00;;;12.00;99.90;;;;;;6184535;23;20428;-87
2021/05/20 07:37:03;;;;;;;1.08;0.95;;;11.80;99.90;;;;;;6159094;23;20079;-87
2021/05/20 07:39:30;;;;;;;2.50;1.48;;;11.60;99.90;;;;;;6158958;23;20439;-86
2021/05/20 07:41:58;;;;;;;3.55;1.05;;;11.50;99.90;;;;;;6159058;23;20028;-87
2021/05/20 07:44:25;;;;;;;1.17;1.00;;;11.20;99.90;;;;;;6158043;23;20036;-88
2021/05/20 07:46:54;;;;;;;1.00;0.90;;;11.10;99.90;;;;;;6158805;23;20032;-87
2021/05/20 07:49:21;;;;;;;0.77;0.77;;;11.10;99.90;;;;;;6185408;23;20036;-88
2021/05/20 07:51:51;;;;;;;0.88;0.82;;;11.20;99.90;;;;;;6183360;23;20016;-87
2021/05/20 07:54:18;;;;;;;1.20;1.02;;;11.30;99.90;;;;;;6157825;23;20075;-88
2021/05/20 07:56:48;;;;;;;2.40;0.80;;;11.60;99.90;;;;;;6158931;23;20487;-84
2021/05/20 07:59:15;;;;;;;0.70;0.70;;;11.70;99.90;;;;;;6134832;23;20024;-87
2021/05/20 08:02:04;;;;;;;1.00;0.80;;;11.90;99.90;;;;;;6184848;23;20094;-88
2021/05/20 08:04:35;;;;;;;0.70;0.70;;;12.20;99.90;;;;;;6199537;23;20028;-87
2021/05/20 08:12:37;;;;;;;0.90;0.70;;;12.90;99.90;;;;;;6156230;23;20084;-88
2021/05/20 08:15:08;;;;;;;1.42;0.80;;;13.20;99.90;;;;;;6195262;23;20017;-88
2021/05/20 08:17:37;;;;;;;3.50;0.60;;;13.50;99.90;;;;;;6185737;23;20025;-86
2021/05/20 08:20:08;;;;;;;0.88;0.60;;;14.00;99.90;;;;;;6183745;23;20021;-90
2021/05/20 08:22:37;;;;;;;0.60;0.60;;;14.70;96.10;;;;;;6158462;23;20060;-87
2021/05/20 08:25:07;;;;;;;0.60;0.60;;;15.80;91.20;;;;;;6183396;23;20116;-88
2021/05/20 08:27:35;;;;;;;2.15;0.60;;;16.50;85.00;;;;;;6183161;23;20103;-87
2021/05/20 08:30:11;;;;;;;0.75;0.65;;;17.00;77.60;;;;;;6184545;23;20017;-88
2021/05/20 08:32:38;;;;;;;0.40;0.40;;;17.20;78.20;;;;;;6157713;23;20098;-87
2021/05/20 08:35:07;;;;;;;0.40;0.40;;;17.50;72.10;;;;;;6183550;23;20069;-85
2021/05/20 08:37:34;;;;;;;0.98;0.63;;;18.10;68.90;;;;;;6183663;23;20080;-86
2021/05/20 08:40:03;;;;;;;1.13;0.60;;;17.80;69.00;;;;;;6183379;23;20033;-86
2021/05/20 08:42:33;;;;;;;0.82;0.60;;;18.40;68.00;;;;;;6158145;23;20075;-87
2021/05/20 08:45:28;;;;;;;1.35;0.40;;;18.90;65.00;;;;;;6163901;23;20146;-87
2021/05/20 08:47:57;;;;;;;0.90;0.55;;;19.60;62.80;;;;;;6189187;23;20029;-87
2021/05/20 08:50:28;;;;;;;0.55;0.30;;;20.30;59.80;;;;;;6189575;23;20061;-89
2021/05/20 08:52:58;;;;;;;1.42;0.38;;;20.90;57.30;;;;;;6189857;23;20027;-86
2021/05/20 08:55:32;;;;;;;1.02;0.35;;;21.40;55.30;;;;;;6187789;23;20031;-87
2021/05/20 08:58:05;;;;;;;0.40;0.38;;;21.60;53.70;;;;;;6187324;23;20127;-87
2021/05/20 09:00:32;;;;;;;1.05;0.50;;;21.30;53.40;;;;;;6183858;23;20439;-91
2021/05/20 09:03:04;;;;;;;1.17;0.50;;;19.70;56.10;;;;;;6157739;23;20025;-88
2021/05/20 09:05:31;;;;;;;0.30;0.30;;;18.20;60.40;;;;;;6184514;23;20055;-86
2021/05/20 09:08:00;;;;;;;0.75;0.38;;;17.60;65.00;;;;;;6183649;23;20401;-86
2021/05/20 09:10:31;;;;;;;0.45;0.45;;;18.10;64.70;;;;;;6183090;23;20020;-86
2021/05/20 09:13:00;;;;;;;0.90;0.43;;;19.00;62.20;;;;;;6184856;23;20021;-86
2021/05/20 09:15:41;;;;;;;0.82;0.60;;;19.90;59.40;;;;;;6183783;23;20083;-85
2021/05/20 09:18:18;;;;;;;0.95;0.40;;;19.80;58.40;;;;;;6182208;23;20029;-86
2021/05/20 09:20:56;;;;;;;2.45;0.88;;;20.20;58.90;;;;;;6183090;23;20024;-88
2021/05/20 09:23:28;;;;;;;0.38;0.38;;;20.60;56.40;;;;;;6182769;23;20021;-88
2021/05/20 09:26:06;;;;;;;0.50;0.50;;;20.80;55.40;;;;;;6156939;23;20056;-88
2021/05/20 09:28:49;;;;;;;0.50;0.40;;;21.40;54.70;;;;;;6157954;23;20024;-87
2021/05/20 09:31:37;;;;;;;0.52;0.45;;;21.80;50.40;;;;;;6156766;23;20017;-87
2021/05/20 09:34:13;;;;;;;0.52;0.30;;;22.00;52.90;;;;;;6182379;23;20148;-87
2021/05/20 09:36:50;;;;;;;0.40;0.30;;;21.50;51.70;;;;;;6183010;23;20321;-88
2021/05/20 09:39:18;;;;;;;0.40;0.38;;;20.60;53.60;;;;;;6183115;23;20033;-86
2021/05/20 09:41:45;;;;;;;0.73;0.50;;;19.90;54.90;;;;;;6183239;23;20111;-86
2021/05/20 09:44:39;;;;;;;0.90;0.30;;;20.10;54.20;;;;;;6182178;23;20199;-85
2021/05/20 09:47:14;;;;;;;2.42;0.47;;;20.40;51.10;;;;;;6178598;23;20036;-84
2021/05/20 09:50:03;;;;;;;0.40;0.30;;;21.20;51.20;;;;;;6182910;23;20584;-83
2021/05/20 09:52:33;;;;;;;1.13;0.38;;;22.80;49.70;;;;;;6183248;23;20021;-85
2021/05/20 09:55:01;;;;;;;0.82;0.30;;;23.10;46.40;;;;;;6186322;23;20025;-85
2021/05/20 09:57:36;;;;;;;1.85;0.50;;;21.90;47.50;;;;;;6193898;23;20052;-84
2021/05/20 10:00:12;;;;;;;0.55;0.50;;;19.30;53.90;;;;;;6194840;23;20180;-82
2021/05/20 10:02:41;;;;;;;0.73;0.63;;;17.40;59.70;;;;;;6198321;23;20107;-83
2021/05/20 10:05:24;;;;;;;1.55;0.60;;;16.40;62.00;;;;;;6192592;23;20455;-82
2021/05/20 10:07:51;;;;;;;2.30;0.50;;;16.20;63.60;;;;;;6164419;23;20132;-82
2021/05/20 10:10:33;;;;;;;1.15;0.80;;;16.10;63.40;;;;;;6182256;23;20437;-82
2021/05/20 10:13:09;;;;;;;0.40;0.40;;;16.00;63.90;;;;;;6182573;23;20060;-83
2021/05/20 10:15:38;;;;;;;0.50;0.50;;;16.10;65.10;;;;;;6181891;23;20031;-83
2021/05/20 10:18:07;;;;;;;0.57;0.50;;;16.20;65.10;;;;;;6181462;23;20021;-83
2021/05/20 10:20:40;;;;;;;0.35;0.35;;;16.30;62.70;;;;;;6181670;23;20024;-83
2021/05/20 10:23:13;;;;;;;1.88;0.60;;;16.30;63.10;;;;;;6182516;23;20036;-86
2021/05/20 10:25:41;;;;;;;0.93;0.40;;;16.60;62.50;;;;;;6182871;23;20333;-84
2021/05/20 10:28:10;;;;;;;0.80;0.55;;;16.80;66.40;;;;;;6181672;23;20073;-84
2021/05/20 10:30:39;;;;;;;4.22;0.43;;;17.50;67.40;;;;;;6155016;23;20049;-83
2021/05/20 10:33:06;;;;;;;2.13;0.60;;;18.20;63.70;;;;;;6180823;23;20297;-85
2021/05/20 10:35:46;;;;;;;1.95;0.50;;;18.50;60.00;;;;;;6181276;23;20046;-85
2021/05/20 10:38:36;;;;;;;1.10;0.43;;;18.80;58.90;;;;;;6181771;23;20087;-81
2021/05/20 10:41:22;;;;;;;0.98;0.30;;;20.30;61.80;;;;;;6182244;23;20040;-83
2021/05/20 10:44:07;;;;;;;1.15;0.40;;;22.90;51.00;;;;;;6182714;23;20079;-86
2021/05/20 10:47:05;;;;;;;0.52;0.30;;;23.60;47.40;;;;;;6182773;23;20021;-87
2021/05/20 10:49:50;;;;;;;1.55;0.30;;;23.00;45.60;;;;;;6156492;23;20036;-88
2021/05/20 10:52:37;;;;;;;0.50;0.40;;;21.60;47.60;;;;;;6182298;23;20017;-86
2021/05/20 10:55:12;;;;;;;1.63;0.70;;;20.00;49.10;;;;;;6156170;23;20368;-87
2021/05/20 10:57:48;;;;;;;0.77;0.60;;;18.60;53.30;;;;;;6184083;23;20037;-86
2021/05/20 11:00:33;;;;;;;4.38;2.05;;;18.20;57.10;;;;;;6184714;23;20151;-87
2021/05/20 11:03:07;;;;;;;0.73;0.50;;;18.30;58.40;;;;;;6185883;23;20163;-86
2021/05/20 11:05:40;;;;;;;0.85;0.63;;;18.50;59.80;;;;;;6184118;23;20239;-85
2021/05/20 11:08:28;;;;;;;0.68;0.50;;;18.70;58.10;;;;;;6183836;23;20075;-85
2021/05/20 11:10:56;;;;;;;3.22;0.60;;;18.80;58.30;;;;;;6158299;23;20017;-85
2021/05/20 11:13:49;;;;;;;0.63;0.55;;;18.80;57.50;;;;;;6184026;23;20048;-85
2021/05/20 11:16:18;;;;;;;0.65;0.30;;;18.90;57.40;;;;;;6180567;23;20045;-85
2021/05/20 11:18:49;;;;;;;0.45;0.40;;;18.90;58.70;;;;;;6183638;23;20021;-84
2021/05/20 11:21:16;;;;;;;0.65;0.47;;;19.40;60.60;;;;;;6158848;23;20131;-84
2021/05/20 11:23:43;;;;;;;0.30;0.30;;;20.80;54.20;;;;;;6183340;23;20025;-83
2021/05/20 11:26:14;;;;;;;0.45;0.30;;;21.90;54.70;;;;;;6157261;23;20440;-85
2021/05/20 11:29:06;;;;;;;1.65;0.52;;;21.90;52.60;;;;;;6183628;23;20409;-84
2021/05/20 11:31:35;;;;;;;0.70;0.38;;;21.40;50.00;;;;;;6184385;23;20075;-84
2021/05/20 11:36:48;;;;;;;0.88;0.63;;;20.10;53.10;;;;;;6183714;23;20017;-85
2021/05/20 11:39:18;;;;;;;0.40;0.40;;;20.00;52.80;;;;;;6183915;23;20021;-85
2021/05/20 11:41:45;;;;;;;1.15;0.30;;;20.20;51.70;;;;;;6183276;23;20318;-85
2021/05/20 11:44:14;;;;;;;0.40;0.30;;;20.60;50.20;;;;;;6183452;23;20089;-85
2021/05/20 11:47:00;;;;;;;0.30;0.30;;;21.30;49.50;;;;;;6183671;23;20345;-86
2021/05/20 11:49:29;;;;;;;1.30;0.40;;;21.60;46.60;;;;;;6183313;23;20091;-84
2021/05/20 11:52:09;;;;;;;0.40;0.40;;;21.10;48.00;;;;;;6183375;23;20099;-84
2021/05/20 11:55:02;;;;;;;0.30;0.30;;;20.40;49.90;;;;;;6183119;23;20333;-85
2021/05/20 11:57:31;;;;;;;0.88;0.40;;;20.90;47.50;;;;;;6183543;23;20021;-85
2021/05/20 11:59:58;;;;;;;2.80;0.30;;;21.30;46.50;;;;;;6183344;23;20025;-89
2021/05/20 12:02:38;;;;;;;0.43;0.30;;;21.60;48.40;;;;;;6159842;23;20477;-86
2021/05/20 12:05:07;;;;;;;0.38;0.38;;;21.50;47.80;;;;;;6183670;23;20036;-86
2021/05/20 12:07:38;;;;;;;0.65;0.30;;;20.30;49.60;;;;;;6183420;23;20096;-87
2021/05/20 12:10:14;;;;;;;2.15;0.40;;;18.60;52.00;;;;;;6183612;23;20128;-84
2021/05/20 12:12:43;;;;;;;0.30;0.30;;;17.70;54.50;;;;;;6183254;23;20108;-84
2021/05/20 12:15:15;;;;;;;1.85;0.50;;;16.70;56.70;;;;;;6183072;23;20032;-82
2021/05/20 12:17:47;;;;;;;9.50;0.60;;;15.90;61.10;;;;;;6183188;23;20045;-83
2021/05/20 12:20:16;;;;;;;2.72;0.90;;;15.20;72.70;;;;;;6182743;23;20374;-83
2021/05/20 12:22:45;;;;;;;3.05;1.40;;;13.90;92.60;;;;;;6182798;23;20541;-83
2021/05/20 12:25:14;;;;;;;2.30;1.00;;;13.40;97.00;;;;;;6157228;23;20382;-83
2021/05/20 12:27:43;;;;;;;0.55;0.55;;;13.30;99.70;;;;;;6183185;23;20031;-84
2021/05/20 12:30:16;;;;;;;3.28;0.80;;;13.30;99.90;;;;;;6133251;23;20021;-83
2021/05/20 12:32:50;;;;;;;0.73;0.70;;;13.50;99.90;;;;;;6182528;23;20080;-84
2021/05/20 12:35:32;;;;;;;1.33;1.05;;;13.70;99.90;;;;;;6182985;23;20076;-85
2021/05/20 12:38:14;;;;;;;0.95;0.63;;;13.80;99.90;;;;;;6183313;23;20036;-84
2021/05/20 12:40:50;;;;;;;0.68;0.68;;;13.60;99.90;;;;;;6183019;23;20773;-83
2021/05/20 12:43:21;;;;;;;2.90;0.90;;;13.20;99.90;;;;;;6157210;23;20021;-85
2021/05/20 12:45:54;;;;;;;1.13;1.00;;;13.10;99.90;;;;;;6157235;23;20059;-86
2021/05/20 12:48:36;;;;;;;4.70;1.13;;;13.00;99.90;;;;;;6183399;23;20017;-84
2021/05/20 12:51:04;;;;;;;0.57;0.57;;;13.00;99.90;;;;;;6182214;23;20024;-84
2021/05/20 12:53:41;;;;;;;0.65;0.65;;;13.40;99.90;;;;;;6182961;23;20025;-84
2021/05/20 12:56:27;;;;;;;0.60;0.60;;;14.80;99.90;;;;;;6183244;23;20313;-83
2021/05/20 12:59:14;;;;;;;0.85;0.80;;;15.50;91.10;;;;;;6153569;23;20376;-93
2021/05/20 13:06:33;;;;;;;0.50;0.50;;;16.10;90.10;;;;;;6007439;23;20655;-91
2021/05/20 13:13:54;;;;;;;0.50;0.50;;;15.90;82.00;;;;;;5909199;24;20025;-93
2021/05/20 13:16:40;;;;;;;0.40;0.40;;;15.70;84.10;;;;;;5965119;23;20293;-92
2021/05/20 13:22:26;;;;;;;;;;;17.30;76.10;;;;;;6102409;23;20046;-90
2021/05/20 13:25:19;;;;;;;0.32;0.32;;;18.30;69.10;;;;;;6075921;23;19967;-91
2021/05/20 13:32:28;;;;;;;;;;;;;;;;;;;;;
2021/05/20 13:34:56;;;;;;;0.40;0.40;;;18.40;62.80;;;;;;5987983;23;20042;-91
2021/05/20 13:37:30;;;;;;;1.30;0.30;;;18.30;62.30;;;;;;5981190;23;20023;-90
2021/05/20 13:39:59;;;;;;;1.10;0.60;;;18.20;61.30;;;;;;6039211;23;20023;-92
2021/05/20 13:46:25;;;;;;;0.40;0.40;;;18.70;62.00;;;;;;6096502;23;20073;-91
2021/05/20 14:15:02;;;;;;;;;;;;;;;;;;;;;
2021/05/20 14:17:36;;;;;;;0.63;0.50;;;19.70;59.70;;;;;;6043451;23;20453;-92
2021/05/20 14:20:47;;;;;;;4.40;0.95;;;19.40;57.90;;;;;;5959829;24;20210;-91
2021/05/20 14:24:04;;;;;;;3.40;0.60;;;18.80;58.70;;;;;;5911747;24;20452;-92
2021/05/20 14:26:47;;;;;;;;;;;;;;;;;;;;;
2021/05/20 14:29:17;;;;;;;2.65;0.50;;;17.30;60.20;;;;;;5978339;24;20035;-90
2021/05/20 14:31:54;;;;;;;1.25;0.65;;;16.90;62.80;;;;;;5977297;24;20189;-92
2021/05/20 14:34:26;;;;;;;1.70;0.80;;;16.60;64.50;;;;;;5955379;24;20020;-91
2021/05/20 14:37:13;;;;;;;0.70;0.70;;;16.50;64.40;;;;;;5979190;24;20031;-92
2021/05/20 14:39:54;;;;;;;0.50;0.50;;;16.50;63.50;;;;;;5956022;24;20360;-91
2021/05/20 14:45:57;;;;;;;0.55;0.50;;;18.30;59.20;;;;;;5953207;24;20077;-90
2021/05/20 14:48:34;;;;;;;;;;;;;;;;;;;;;
2021/05/20 15:07:06;;;;;;;0.68;0.40;;;19.70;51.80;;;;;;6194427;23;20071;-91
2021/05/20 15:11:05;;;;;;;;;;;;;;;;;;;;;
2021/05/20 15:17:59;;;;;;;;;;;;;;;;;;;;;
2021/05/20 15:21:04;;;;;;;3.30;0.40;;;20.90;49.30;;;;;;6104346;23;20098;-93
2021/05/20 15:23:54;;;;;;;2.13;0.60;;;21.00;48.00;;;;;;6084541;23;20042;-93
2021/05/20 15:29:34;;;;;;;;;;;18.80;50.80;;;;;;6160819;23;20028;-90
2021/05/20 15:32:37;;;;;;;2.38;0.80;;;17.50;54.60;;;;;;6080430;23;19918;-93
2021/05/20 15:35:19;;;;;;;0.50;0.50;;;17.30;55.80;;;;;;6103281;23;20027;-93
2021/05/20 15:38:20;;;;;;;1.10;0.80;;;17.20;57.40;;;;;;6099393;23;20027;-88
2021/05/20 15:40:50;;;;;;;0.75;0.60;;;17.40;58.70;;;;;;5990850;24;20096;-92
2021/05/20 15:43:51;;;;;;;1.60;0.75;;;17.30;57.90;;;;;;5994910;24;20110;-92
2021/05/20 15:46:42;;;;;;;2.13;0.75;;;17.20;59.10;;;;;;6001775;23;20012;-92
2021/05/20 15:52:39;;;;;;;1.23;0.70;;;17.10;59.90;;;;;;6108985;23;20075;-93
2021/05/20 15:55:52;;;;;;;1.15;0.90;;;16.70;62.40;;;;;;6231238;23;20060;-89
2021/05/20 15:58:20;;;;;;;1.52;0.80;;;16.50;63.70;;;;;;6221972;23;20112;-88
2021/05/20 16:00:47;;;;;;;0.95;0.80;;;16.40;63.80;;;;;;6188538;23;20020;-88
2021/05/20 16:03:17;;;;;;;1.00;0.73;;;16.60;63.80;;;;;;6212725;23;20021;-89
2021/05/20 16:05:45;;;;;;;3.50;0.93;;;16.70;63.60;;;;;;6212729;23;20297;-90
2021/05/20 16:08:25;;;;;;;1.83;1.15;;;16.80;63.50;;;;;;6189217;23;20071;-91
2021/05/20 16:11:19;;;;;;;0.50;0.50;;;16.80;63.50;;;;;;6189779;23;20016;-91
2021/05/20 16:14:24;;;;;;;1.27;0.60;;;16.40;59.70;;;;;;6217415;23;20154;-92
2021/05/20 16:16:57;;;;;;;0.73;0.40;;;16.10;59.30;;;;;;6218441;23;20020;-92
2021/05/20 16:19:29;;;;;;;1.17;0.82;;;15.70;59.90;;;;;;6217751;23;20021;-92
2021/05/20 16:22:07;;;;;;;0.70;0.70;;;15.80;61.30;;;;;;6193425;23;20174;-90
2021/05/20 16:24:52;;;;;;;1.00;0.68;;;15.60;61.60;;;;;;6195551;23;20099;-92
2021/05/20 16:39:00;;;;;;;0.60;0.60;;;15.40;65.80;;;;;;6217213;23;20021;-92
2021/05/20 16:41:30;;;;;;;0.85;0.57;;;15.50;65.20;;;;;;6191427;23;20062;-91
2021/05/20 16:43:59;;;;;;;0.60;0.60;;;15.40;65.00;;;;;;6219014;23;20032;-91
2021/05/20 16:46:26;;;;;;;0.52;0.47;;;15.10;63.00;;;;;;6217013;23;20028;-88
2021/05/20 16:48:53;;;;;;;0.80;0.60;;;14.80;63.70;;;;;;6190179;23;20025;-89
2021/05/20 16:51:22;;;;;;;1.25;0.70;;;14.60;64.90;;;;;;6218326;23;20032;-91
2021/05/20 16:53:53;;;;;;;1.40;0.50;;;14.60;65.10;;;;;;6218822;23;20016;-93
2021/05/20 16:59:47;;;;;;;0.75;0.60;;;14.50;65.90;;;;;;6214541;23;20012;-91
2021/05/20 17:02:14;;;;;;;0.60;0.60;;;14.40;67.10;;;;;;6188976;23;20025;-91
2021/05/20 17:04:44;;;;;;;0.75;0.75;;;14.30;67.20;;;;;;6165025;23;20082;-86
2021/05/20 17:07:14;;;;;;;1.48;0.93;;;14.30;67.70;;;;;;6215054;23;20043;-91
2021/05/20 17:09:44;;;;;;;1.08;0.70;;;14.30;68.70;;;;;;6198694;23;20086;-90
2021/05/20 17:12:12;;;;;;;0.63;0.63;;;14.30;69.50;;;;;;6234441;23;20028;-91
2021/05/20 17:14:41;;;;;;;0.68;0.63;;;14.20;70.20;;;;;;6237635;23;20024;-92
2021/05/20 17:17:08;;;;;;;0.68;0.60;;;14.20;70.20;;;;;;6211345;23;20008;-91
2021/05/20 17:19:38;;;;;;;0.70;0.70;;;14.20;70.80;;;;;;6211928;23;20023;-93
2021/05/20 17:22:11;;;;;;;1.65;0.80;;;14.10;69.60;;;;;;6237593;22;20012;-92
2021/05/20 17:24:38;;;;;;;2.13;0.77;;;14.10;69.00;;;;;;6237450;23;20020;-93
2021/05/20 17:27:11;;;;;;;0.82;0.73;;;14.10;69.00;;;;;;6229775;23;20024;-93
2021/05/20 17:29:38;;;;;;;3.42;0.75;;;14.10;70.30;;;;;;6222396;23;20067;-92
2021/05/20 17:32:05;;;;;;;2.05;1.00;;;14.00;70.00;;;;;;6222123;23;20016;-93
2021/05/20 17:34:36;;;;;;;1.60;0.98;;;14.00;70.90;;;;;;6225739;23;20017;-93
2021/05/20 17:37:09;;;;;;;1.27;0.85;;;14.00;70.50;;;;;;6226025;23;20651;-94
2021/05/20 17:39:39;;;;;;;0.60;0.60;;;13.80;70.30;;;;;;6226957;23;20020;-94
2021/05/20 17:42:08;;;;;;;1.00;0.88;;;13.80;70.90;;;;;;6223639;23;20047;-92
2021/05/20 17:44:36;;;;;;;1.30;0.80;;;13.70;71.30;;;;;;6230510;23;20025;-93
2021/05/20 17:47:05;;;;;;;0.70;0.70;;;13.60;72.10;;;;;;6232817;23;20016;-92
2021/05/20 17:49:32;;;;;;;1.27;0.73;;;13.60;72.20;;;;;;6197259;23;20312;-91
2021/05/20 17:52:12;;;;;;;0.82;0.82;;;13.60;72.80;;;;;;6186759;23;20030;-93
2021/05/20 17:54:41;;;;;;;1.05;0.90;;;13.60;73.40;;;;;;6225911;23;20020;-92
2021/05/20 17:57:08;;;;;;;1.63;1.25;;;13.60;74.80;;;;;;6222198;23;20044;-93
2021/05/20 17:59:40;;;;;;;3.42;1.45;;;13.50;75.80;;;;;;6220164;23;20332;-92
2021/05/20 18:02:10;;;;;;;1.60;1.17;;;13.50;77.10;;;;;;6219534;23;20191;-92
2021/05/20 18:04:37;;;;;;;2.83;1.17;;;13.40;75.90;;;;;;6217766;23;20035;-92
2021/05/20 18:07:07;;;;;;;3.22;2.85;;;13.40;77.70;;;;;;6215239;23;20091;-93
2021/05/20 18:09:36;;;;;;;5.38;3.95;;;13.30;78.50;;;;;;6192683;23;20045;-94
2021/05/20 18:12:09;;;;;;;4.50;2.08;;;13.20;79.70;;;;;;6225168;23;20205;-92
2021/05/20 18:14:49;;;;;;;2.08;1.77;;;13.20;81.10;;;;;;6195286;23;20020;-93
2021/05/20 18:17:26;;;;;;;2.50;1.73;;;13.20;79.10;;;;;;6224176;23;20028;-94
2021/05/20 18:22:30;;;;;;;2.00;1.45;;;13.10;82.10;;;;;;6224620;23;20068;-94
2021/05/20 18:24:57;;;;;;;1.30;1.20;;;13.00;83.50;;;;;;6197625;23;20079;-94
2021/05/20 18:27:24;;;;;;;1.70;1.33;;;13.00;82.50;;;;;;6195182;23;20024;-93
2021/05/20 18:30:05;;;;;;;4.13;1.60;;;12.90;82.00;;;;;;6212370;23;20024;-93
2021/05/20 18:32:33;;;;;;;1.60;0.90;;;12.90;83.90;;;;;;6213078;23;20040;-92
2021/05/20 18:35:03;;;;;;;1.20;1.10;;;12.90;83.40;;;;;;6224753;23;20130;-94
2021/05/20 18:37:30;;;;;;;1.92;1.23;;;12.80;84.70;;;;;;6226622;23;20025;-94
2021/05/20 18:40:04;;;;;;;1.73;1.38;;;12.80;85.80;;;;;;6218409;23;20039;-90
2021/05/20 18:42:43;;;;;;;2.88;1.60;;;12.70;86.50;;;;;;6211995;23;20440;-87
2021/05/20 18:45:15;;;;;;;3.40;1.60;;;12.70;86.40;;;;;;6213802;23;20021;-90
2021/05/20 18:47:46;;;;;;;3.00;1.52;;;12.60;85.70;;;;;;6214851;23;20024;-91
2021/05/20 18:50:25;;;;;;;3.15;1.20;;;12.50;86.90;;;;;;6187985;23;20024;-91
2021/05/20 18:52:53;;;;;;;1.35;0.90;;;12.50;86.80;;;;;;6213487;23;20032;-90
2021/05/20 18:55:25;;;;;;;3.45;0.90;;;12.50;86.10;;;;;;6212780;23;20024;-88
2021/05/20 18:57:52;;;;;;;2.38;0.90;;;12.40;86.40;;;;;;6190204;23;20024;-91
2021/05/20 19:00:22;;;;;;;3.25;1.13;;;12.40;87.20;;;;;;6214113;23;20016;-91
2021/05/20 19:02:52;;;;;;;0.90;0.80;;;12.30;87.30;;;;;;6213342;23;20025;-92
2021/05/20 19:05:32;;;;;;;0.80;0.80;;;12.30;86.30;;;;;;6214476;23;20594;-85
2021/05/20 19:10:28;;;;;;;2.22;1.50;;;12.30;88.80;;;;;;6186596;23;20029;-89
2021/05/20 19:12:55;;;;;;;1.35;1.25;;;12.20;88.80;;;;;;6213832;23;20020;-89
2021/05/20 19:15:27;;;;;;;2.08;1.77;;;12.20;89.60;;;;;;6213663;23;20217;-90
2021/05/20 19:17:54;;;;;;;5.40;3.63;;;12.10;90.20;;;;;;6215751;23;20035;-92
2021/05/20 19:20:22;;;;;;;7.50;4.75;;;12.10;92.50;;;;;;6192913;23;20086;-91
2021/05/20 19:22:54;;;;;;;6.40;3.45;;;12.10;93.60;;;;;;6192732;23;20029;-92
2021/05/20 19:25:22;;;;;;;3.72;2.08;;;12.00;94.00;;;;;;6194358;23;20023;-91
2021/05/20 19:27:53;;;;;;;2.10;1.50;;;12.00;95.20;;;;;;6220616;23;20072;-92
2021/05/20 19:30:23;;;;;;;1.92;1.60;;;12.00;95.20;;;;;;6218319;23;20024;-92
2021/05/20 19:32:55;;;;;;;1.40;1.30;;;12.00;96.00;;;;;;6219152;23;20095;-91
2021/05/20 19:35:25;;;;;;;5.68;1.85;;;11.90;95.60;;;;;;6193064;23;20028;-93
2021/05/20 19:37:52;;;;;;;1.90;1.30;;;11.80;96.20;;;;;;6218100;23;20098;-92
2021/05/20 19:40:25;;;;;;;2.38;1.80;;;11.80;96.30;;;;;;6218054;23;20028;-92
2021/05/20 19:42:55;;;;;;;3.28;1.30;;;11.80;96.10;;;;;;6193218;23;20030;-91
2021/05/20 19:45:49;;;;;;;1.35;1.23;;;11.70;97.30;;;;;;6191782;23;20023;-92
2021/05/20 19:48:19;;;;;;;1.50;1.40;;;11.70;97.30;;;;;;6224046;23;20051;-92
2021/05/20 19:50:54;;;;;;;3.88;1.60;;;11.60;97.40;;;;;;6224107;23;20028;-92
2021/05/20 20:32:42;;;;;;;3.08;1.38;;;10.90;99.90;;;;;;6223955;23;20067;-91
2021/05/20 20:37:03;;;;;;;;;;;;;;;;;;;;;
2021/05/20 20:43:16;;;;;;;3.83;1.80;;;10.80;99.90;;;;;;6129118;23;20047;-92
2021/05/20 20:45:45;;;;;;;3.75;1.70;;;10.80;99.90;;;;;;6218612;23;20048;-92
2021/05/20 20:48:23;;;;;;;2.88;1.67;;;10.80;99.90;;;;;;6217717;23;20104;-92
2021/05/20 20:51:38;;;;;;;4.47;1.40;;;10.80;99.90;;;;;;6218085;23;20477;-92
2021/05/20 20:54:13;;;;;;;2.50;1.30;;;10.70;99.90;;;;;;6193627;23;20363;-92
2021/05/20 20:56:42;;;;;;;1.60;1.38;;;10.60;99.90;;;;;;6215736;23;20032;-92
2021/05/20 20:59:13;;;;;;;1.88;1.20;;;10.50;99.90;;;;;;6215000;23;20071;-93